Time;durP1;ratioP1;P1;durP2;ratioP2;P2;SDS_P1;SDS_P2;PMS_P1;PMS_P2;Temp;Humidity;BMP_temperature;BMP_pressure;BME280_temperature;BME280_humidity;BME280_pressure;Samples;Min_cycle;Max_cycle;Signal;HPM_P1;HPM_P2
2021/10/13 00:01:29;;;;;;;5.87;3.60;;;6.30;99.90;;;;;;5124161;27;20195;-70
2021/10/13 00:03:56;;;;;;;7.93;3.80;;;6.30;99.90;;;;;;5128035;27;20207;-69
2021/10/13 00:06:23;;;;;;;7.57;3.27;;;6.30;99.90;;;;;;5112565;28;20209;-69
2021/10/13 00:08:50;;;;;;;5.00;3.33;;;6.20;99.90;;;;;;5129781;27;20195;-69
2021/10/13 00:11:17;;;;;;;7.83;3.80;;;6.30;99.90;;;;;;5113896;28;20821;-70
2021/10/13 00:13:44;;;;;;;7.13;3.57;;;6.30;99.90;;;;;;5118228;28;20686;-69
2021/10/13 00:16:13;;;;;;;6.47;3.80;;;6.40;99.90;;;;;;5125149;28;20200;-70
2021/10/13 00:18:40;;;;;;;8.07;3.87;;;6.40;99.90;;;;;;5122475;27;20602;-70
2021/10/13 00:21:07;;;;;;;5.17;3.20;;;6.30;99.90;;;;;;5120221;28;20657;-70
2021/10/13 00:23:34;;;;;;;6.70;3.40;;;6.20;99.90;;;;;;5121964;28;20243;-70
2021/10/13 00:26:01;;;;;;;6.33;3.83;;;6.30;99.90;;;;;;5120722;27;20206;-70
2021/10/13 00:28:28;;;;;;;6.20;3.70;;;6.30;99.90;;;;;;5128792;28;20210;-70
2021/10/13 00:30:55;;;;;;;6.77;3.60;;;6.30;99.90;;;;;;5128885;27;20227;-69
2021/10/13 00:33:23;;;;;;;6.67;3.83;;;6.30;99.90;;;;;;5119305;27;20201;-69
2021/10/13 00:35:50;;;;;;;6.40;3.53;;;6.20;99.90;;;;;;5123275;28;20206;-69
2021/10/13 00:38:16;;;;;;;8.37;5.23;;;6.30;99.90;;;;;;5122492;28;20204;-70
2021/10/13 00:40:43;;;;;;;8.83;4.10;;;6.30;99.90;;;;;;5131291;28;20639;-70
2021/10/13 00:43:10;;;;;;;10.37;3.70;;;6.30;99.90;;;;;;5122003;28;20208;-70
2021/10/13 00:45:37;;;;;;;9.10;3.73;;;6.30;99.90;;;;;;5115699;28;20200;-70
2021/10/13 00:48:04;;;;;;;4.60;3.57;;;6.30;99.90;;;;;;5123315;27;20193;-70
2021/10/13 00:50:33;;;;;;;7.23;4.20;;;6.20;99.90;;;;;;5113129;27;20224;-70
2021/10/13 00:53:00;;;;;;;6.93;3.40;;;6.00;99.90;;;;;;5131517;27;20553;-70
2021/10/13 00:55:27;;;;;;;6.93;4.20;;;6.00;99.90;;;;;;5125337;28;20216;-70
2021/10/13 00:57:54;;;;;;;6.47;4.03;;;6.10;99.90;;;;;;5124546;27;20662;-70
2021/10/13 01:00:22;;;;;;;6.57;4.13;;;6.10;99.90;;;;;;5125799;28;20200;-70
2021/10/13 01:03:07;;;;;;;7.17;3.57;;;6.10;99.90;;;;;;5129249;28;20208;-70
2021/10/13 01:05:48;;;;;;;6.33;3.83;;;6.00;99.90;;;;;;5116321;27;20219;-70
2021/10/13 01:08:26;;;;;;;6.37;3.60;;;6.10;99.90;;;;;;5113981;28;20200;-70
2021/10/13 01:11:04;;;;;;;7.40;3.77;;;6.00;99.90;;;;;;5126214;27;20208;-70
2021/10/13 01:13:38;;;;;;;6.17;3.80;;;6.00;99.90;;;;;;5123456;28;20200;-75
2021/10/13 01:16:12;;;;;;;6.67;3.50;;;6.00;99.90;;;;;;5120593;28;20187;-75
2021/10/13 01:18:46;;;;;;;9.67;3.77;;;5.90;99.90;;;;;;5130075;28;20192;-75
2021/10/13 01:21:24;;;;;;;7.73;3.70;;;6.00;99.90;;;;;;5129756;28;20540;-76
2021/10/13 01:24:27;;;;;;;7.60;3.77;;;5.90;99.90;;;;;;5123027;27;20457;-75
2021/10/13 01:27:06;;;;;;;8.30;3.83;;;5.80;99.90;;;;;;5127325;27;20198;-75
2021/10/13 01:29:39;;;;;;;7.10;3.80;;;5.80;99.90;;;;;;5123481;27;20200;-75
2021/10/13 01:32:13;;;;;;;6.60;3.30;;;5.80;99.90;;;;;;5133438;27;20559;-75
2021/10/13 01:34:44;;;;;;;6.60;3.77;;;5.80;99.90;;;;;;5132150;27;20202;-75
2021/10/13 01:37:17;;;;;;;6.60;3.97;;;5.70;99.90;;;;;;5133873;27;20522;-75
2021/10/13 01:39:50;;;;;;;9.43;3.83;;;5.80;99.90;;;;;;5129425;27;20197;-75
2021/10/13 01:42:18;;;;;;;7.97;4.47;;;5.80;99.90;;;;;;5132795;27;20204;-75
2021/10/13 01:44:48;;;;;;;5.97;4.13;;;5.70;99.90;;;;;;5118349;27;20207;-76
2021/10/13 01:47:18;;;;;;;7.73;4.47;;;5.80;99.90;;;;;;5126818;27;20196;-75
2021/10/13 01:49:47;;;;;;;11.10;5.47;;;5.70;99.90;;;;;;5128177;27;20219;-76
2021/10/13 01:52:15;;;;;;;8.17;5.00;;;5.60;99.90;;;;;;5134855;27;20230;-76
2021/10/13 01:54:43;;;;;;;12.97;6.17;;;5.60;99.90;;;;;;5130094;27;20188;-75
2021/10/13 01:57:11;;;;;;;9.67;5.40;;;5.60;99.90;;;;;;5133428;27;20214;-76
2021/10/13 01:59:41;;;;;;;7.73;4.93;;;5.60;99.90;;;;;;5129487;27;20215;-75
2021/10/13 02:02:10;;;;;;;9.20;5.20;;;5.50;99.90;;;;;;5120150;27;20201;-75
2021/10/13 02:04:41;;;;;;;10.57;6.00;;;5.40;99.90;;;;;;5124398;27;20201;-75
2021/10/13 02:07:09;;;;;;;11.30;5.83;;;5.40;99.90;;;;;;5124155;27;20653;-75
2021/10/13 02:09:37;;;;;;;11.63;5.93;;;5.60;99.90;;;;;;5120991;27;20301;-76
2021/10/13 02:12:06;;;;;;;10.10;5.77;;;5.60;99.90;;;;;;5126758;27;20230;-75
2021/10/13 02:14:37;;;;;;;11.10;6.13;;;5.60;99.90;;;;;;5132065;27;20572;-75
2021/10/13 02:17:07;;;;;;;15.23;6.60;;;5.80;99.90;;;;;;5133630;27;20204;-76
2021/10/13 02:19:37;;;;;;;12.27;6.57;;;5.80;99.90;;;;;;5131800;27;20223;-75
2021/10/13 02:22:05;;;;;;;12.00;6.83;;;5.60;99.90;;;;;;5131688;27;20189;-75
2021/10/13 02:24:39;;;;;;;11.40;6.67;;;5.80;99.90;;;;;;5119751;27;20200;-76
2021/10/13 02:27:09;;;;;;;12.50;7.30;;;5.90;99.90;;;;;;5120976;27;20202;-75
2021/10/13 02:29:38;;;;;;;12.10;7.37;;;5.90;99.90;;;;;;5130864;27;20546;-76
2021/10/13 02:32:06;;;;;;;13.63;7.50;;;5.90;99.90;;;;;;5132662;27;20227;-75
2021/10/13 02:34:35;;;;;;;11.87;7.07;;;5.80;99.90;;;;;;5124794;27;20205;-75
2021/10/13 02:37:02;;;;;;;11.93;7.07;;;5.80;99.90;;;;;;5113335;28;20201;-76
2021/10/13 02:39:28;;;;;;;12.60;7.13;;;5.70;99.90;;;;;;5122150;27;20208;-75
2021/10/13 02:41:55;;;;;;;12.43;7.17;;;5.60;99.90;;;;;;5127031;27;20189;-75
2021/10/13 02:44:23;;;;;;;15.17;7.60;;;5.60;99.90;;;;;;5126620;27;20200;-76
2021/10/13 02:46:54;;;;;;;16.73;7.57;;;5.60;99.90;;;;;;5133041;27;20192;-77
2021/10/13 02:49:28;;;;;;;13.53;7.30;;;5.70;99.90;;;;;;5123925;27;20215;-75
2021/10/13 02:52:07;;;;;;;11.53;6.83;;;5.70;99.90;;;;;;5130257;27;20225;-75
2021/10/13 02:54:46;;;;;;;12.50;6.93;;;5.70;99.90;;;;;;5130215;27;20196;-76
2021/10/13 02:57:14;;;;;;;13.43;7.40;;;5.60;99.90;;;;;;5133565;27;20196;-76
2021/10/13 02:59:43;;;;;;;13.20;6.97;;;5.60;99.90;;;;;;5129819;27;20205;-75
2021/10/13 03:02:14;;;;;;;15.07;7.43;;;5.70;99.90;;;;;;5130122;27;20222;-75
2021/10/13 03:04:48;;;;;;;9.97;6.80;;;5.60;99.90;;;;;;5124175;27;20199;-76
2021/10/13 03:07:20;;;;;;;13.17;6.87;;;5.60;99.90;;;;;;5129350;27;20207;-76
2021/10/13 03:09:55;;;;;;;12.07;6.80;;;5.60;99.90;;;;;;5130398;27;20196;-75
2021/10/13 03:12:23;;;;;;;13.63;6.67;;;5.50;99.90;;;;;;5131318;27;20219;-76
2021/10/13 03:14:52;;;;;;;13.57;7.40;;;5.50;99.90;;;;;;5130405;27;20192;-75
2021/10/13 03:17:20;;;;;;;13.23;7.17;;;5.40;99.90;;;;;;5131779;27;20202;-75
2021/10/13 03:19:48;;;;;;;11.33;6.53;;;5.30;99.90;;;;;;5122181;27;20246;-75
2021/10/13 03:22:18;;;;;;;14.37;6.77;;;5.20;99.90;;;;;;5133451;27;20261;-75
2021/10/13 03:24:45;;;;;;;12.20;7.40;;;5.30;99.90;;;;;;5121672;27;20204;-75
2021/10/13 03:27:12;;;;;;;13.97;7.37;;;5.30;99.90;;;;;;5133392;27;20489;-75
2021/10/13 03:29:40;;;;;;;12.93;7.47;;;5.30;99.90;;;;;;5119636;27;20204;-75
2021/10/13 03:32:08;;;;;;;12.53;7.80;;;5.20;99.90;;;;;;5122047;27;20242;-75
2021/10/13 03:34:35;;;;;;;16.50;7.50;;;5.20;99.90;;;;;;5126975;27;20200;-75
2021/10/13 03:37:02;;;;;;;11.57;7.57;;;5.20;99.90;;;;;;5133149;27;20661;-75
2021/10/13 03:39:30;;;;;;;12.47;7.27;;;5.20;99.90;;;;;;5123329;27;20673;-75
2021/10/13 03:42:01;;;;;;;12.37;7.17;;;5.10;99.90;;;;;;5117418;27;20202;-75
2021/10/13 03:44:28;;;;;;;13.97;7.73;;;5.10;99.90;;;;;;5127606;27;20260;-75
2021/10/13 03:46:55;;;;;;;13.37;7.27;;;5.10;99.90;;;;;;5132675;27;20219;-75
2021/10/13 03:49:22;;;;;;;16.23;7.73;;;5.20;99.90;;;;;;5123718;27;20205;-75
2021/10/13 03:51:49;;;;;;;15.40;8.03;;;5.10;99.90;;;;;;5111870;28;20224;-75
2021/10/13 03:54:16;;;;;;;14.13;7.93;;;5.10;99.90;;;;;;5117570;27;20200;-75
2021/10/13 03:56:44;;;;;;;14.13;7.83;;;5.20;99.90;;;;;;5113237;27;20201;-75
2021/10/13 03:59:11;;;;;;;15.13;7.40;;;5.20;99.90;;;;;;5114905;27;20201;-75
2021/10/13 04:01:38;;;;;;;14.57;7.90;;;5.20;99.90;;;;;;5122483;27;20192;-75
2021/10/13 04:04:05;;;;;;;13.70;7.33;;;5.20;99.90;;;;;;5129936;27;20197;-75
2021/10/13 04:06:32;;;;;;;14.03;6.67;;;5.00;99.90;;;;;;5116173;27;20219;-75
2021/10/13 04:08:58;;;;;;;16.53;7.90;;;5.10;99.90;;;;;;5130620;27;20200;-75
2021/10/13 04:11:25;;;;;;;34.50;7.30;;;5.10;99.90;;;;;;5119789;28;20226;-75
2021/10/13 04:13:53;;;;;;;26.13;6.87;;;5.00;99.90;;;;;;5111362;28;20209;-75
2021/10/13 04:16:20;;;;;;;29.10;6.60;;;5.00;99.90;;;;;;5122214;28;20207;-75
2021/10/13 04:18:47;;;;;;;53.57;6.97;;;4.90;99.90;;;;;;5127774;27;20192;-75
2021/10/13 04:21:14;;;;;;;63.00;7.87;;;4.90;99.90;;;;;;5123677;28;20192;-75
2021/10/13 04:23:41;;;;;;;54.80;8.30;;;4.80;99.90;;;;;;5133539;27;20245;-75
2021/10/13 04:26:08;;;;;;;56.73;9.03;;;4.80;99.90;;;;;;5132183;27;20204;-75
2021/10/13 04:28:35;;;;;;;58.13;7.73;;;4.70;99.90;;;;;;5115642;28;20561;-75
2021/10/13 04:31:03;;;;;;;59.67;7.23;;;4.80;99.90;;;;;;5117941;27;20212;-75
2021/10/13 04:33:30;;;;;;;80.30;9.97;;;4.80;99.90;;;;;;5114185;28;20203;-76
2021/10/13 04:35:57;;;;;;;50.83;7.60;;;4.80;99.90;;;;;;5111820;28;20208;-70
2021/10/13 04:38:24;;;;;;;51.63;8.00;;;4.80;99.90;;;;;;5112713;28;20211;-69
2021/10/13 04:40:51;;;;;;;22.47;6.73;;;4.90;99.90;;;;;;5127189;27;20188;-69
2021/10/13 04:43:17;;;;;;;21.87;6.53;;;4.80;99.90;;;;;;5130062;27;20238;-69
2021/10/13 04:45:44;;;;;;;25.70;6.97;;;4.80;99.90;;;;;;5131580;28;20289;-69
2021/10/13 04:48:12;;;;;;;8.50;6.20;;;4.90;99.90;;;;;;5130386;27;20223;-69
2021/10/13 04:50:39;;;;;;;39.47;7.70;;;4.90;99.90;;;;;;5118850;28;20219;-68
2021/10/13 04:53:06;;;;;;;11.67;6.07;;;4.80;99.90;;;;;;5111250;28;20207;-69
2021/10/13 04:55:33;;;;;;;11.90;6.70;;;4.90;99.90;;;;;;5121269;28;20678;-69
2021/10/13 04:57:59;;;;;;;25.13;7.00;;;5.00;99.90;;;;;;5126909;27;20200;-69
2021/10/13 05:00:26;;;;;;;14.27;6.37;;;5.00;99.90;;;;;;5119711;27;20578;-69
2021/10/13 05:02:54;;;;;;;11.13;7.00;;;4.80;99.90;;;;;;5129948;27;20196;-69
2021/10/13 05:05:22;;;;;;;12.00;6.57;;;4.90;99.90;;;;;;5128716;27;20204;-69
2021/10/13 05:07:49;;;;;;;17.90;6.70;;;4.90;99.90;;;;;;5135964;27;20200;-69
2021/10/13 05:10:16;;;;;;;14.43;6.10;;;4.80;99.90;;;;;;5120720;27;20657;-69
2021/10/13 05:12:43;;;;;;;9.67;6.10;;;4.70;99.90;;;;;;5134899;27;20616;-69
2021/10/13 05:15:10;;;;;;;10.87;6.63;;;4.70;99.90;;;;;;5132345;27;20204;-68
2021/10/13 05:17:37;;;;;;;8.93;6.10;;;4.60;99.90;;;;;;5118650;27;20562;-68
2021/10/13 05:20:04;;;;;;;8.73;5.50;;;4.70;99.90;;;;;;5116742;27;20208;-68
2021/10/13 05:22:32;;;;;;;9.73;6.10;;;4.70;99.90;;;;;;5114580;28;20203;-68
2021/10/13 05:24:59;;;;;;;10.23;5.57;;;4.60;99.90;;;;;;5117297;27;20208;-68
2021/10/13 05:27:26;;;;;;;7.40;5.30;;;4.50;99.90;;;;;;5125139;27;20236;-68
2021/10/13 05:29:53;;;;;;;9.03;5.97;;;4.50;99.90;;;;;;5126463;27;20197;-68
2021/10/13 05:32:19;;;;;;;15.77;7.50;;;4.50;99.90;;;;;;5122961;27;20220;-68
2021/10/13 05:34:46;;;;;;;13.80;7.53;;;4.40;99.90;;;;;;5119992;27;20229;-68
2021/10/13 05:37:13;;;;;;;16.03;9.07;;;4.40;99.90;;;;;;5118104;27;20681;-68
2021/10/13 05:39:42;;;;;;;20.33;8.97;;;4.40;99.90;;;;;;5117811;27;20203;-68
2021/10/13 05:42:08;;;;;;;33.67;8.27;;;4.50;99.90;;;;;;5120169;27;20196;-68
2021/10/13 05:44:35;;;;;;;52.77;9.17;;;4.50;99.90;;;;;;5126965;27;20294;-68
2021/10/13 05:47:03;;;;;;;34.50;7.87;;;4.30;99.90;;;;;;5117457;27;20212;-68
2021/10/13 05:49:29;;;;;;;14.37;6.20;;;4.40;99.90;;;;;;5114975;27;20563;-69
2021/10/13 05:51:56;;;;;;;26.97;8.10;;;4.50;99.90;;;;;;5118689;27;20221;-68
2021/10/13 05:54:23;;;;;;;10.57;6.60;;;4.60;99.90;;;;;;5114807;27;20692;-68
2021/10/13 05:56:52;;;;;;;16.73;7.70;;;4.80;99.90;;;;;;5114383;27;20753;-68
2021/10/13 05:59:19;;;;;;;11.10;6.50;;;4.70;99.90;;;;;;5121096;27;20626;-68
2021/10/13 06:01:46;;;;;;;10.57;6.90;;;4.80;99.90;;;;;;5108882;28;20228;-69
2021/10/13 06:04:13;;;;;;;10.67;6.80;;;4.80;99.90;;;;;;5110552;28;20205;-68
2021/10/13 06:06:40;;;;;;;11.17;6.50;;;4.90;99.90;;;;;;5112797;27;20200;-68
2021/10/13 06:09:07;;;;;;;10.90;6.97;;;4.70;99.90;;;;;;5129398;27;20235;-68
2021/10/13 06:11:34;;;;;;;12.23;7.50;;;4.70;99.90;;;;;;5117647;27;20242;-68
2021/10/13 06:14:02;;;;;;;15.27;8.03;;;4.70;99.90;;;;;;5109912;28;20543;-68
2021/10/13 06:16:29;;;;;;;13.07;7.30;;;4.60;99.90;;;;;;5127271;27;20654;-68
2021/10/13 06:18:56;;;;;;;13.00;7.40;;;4.60;99.90;;;;;;5109952;28;20209;-67
2021/10/13 06:21:23;;;;;;;11.53;7.23;;;4.50;99.90;;;;;;5127566;27;20287;-68
2021/10/13 06:23:51;;;;;;;13.30;8.07;;;4.50;99.90;;;;;;5130821;27;20203;-68
2021/10/13 06:26:20;;;;;;;15.17;8.93;;;4.50;99.90;;;;;;5128862;27;20709;-68
2021/10/13 06:28:47;;;;;;;14.60;8.53;;;4.50;99.90;;;;;;5111159;27;20771;-68
2021/10/13 06:31:16;;;;;;;14.90;8.43;;;4.50;99.90;;;;;;5140819;27;20207;-68
2021/10/13 06:33:42;;;;;;;14.90;9.13;;;4.60;99.90;;;;;;5136422;27;20196;-68
2021/10/13 06:36:10;;;;;;;15.03;9.23;;;4.70;99.90;;;;;;5120203;27;20201;-68
2021/10/13 06:38:37;;;;;;;13.70;8.67;;;4.80;99.90;;;;;;5117963;27;20253;-68
2021/10/13 06:41:06;;;;;;;18.23;11.47;;;4.90;99.90;;;;;;5120674;27;20209;-68
2021/10/13 06:43:32;;;;;;;15.23;8.80;;;4.90;99.90;;;;;;5121478;27;20200;-68
2021/10/13 06:45:59;;;;;;;13.33;8.30;;;5.00;99.90;;;;;;5115442;27;20744;-68
2021/10/13 06:48:28;;;;;;;15.37;8.33;;;5.20;99.90;;;;;;5112844;27;20208;-68
2021/10/13 06:50:55;;;;;;;18.53;10.07;;;5.30;99.90;;;;;;5108210;28;20209;-68
2021/10/13 06:53:21;;;;;;;16.00;8.70;;;5.30;99.90;;;;;;5110445;27;20310;-69
2021/10/13 06:55:49;;;;;;;14.53;8.23;;;5.40;99.90;;;;;;5125483;27;20196;-68
2021/10/13 06:58:15;;;;;;;18.43;9.20;;;5.50;99.90;;;;;;5129828;27;20200;-67
2021/10/13 07:00:42;;;;;;;16.43;9.10;;;5.60;99.90;;;;;;5116922;27;20220;-68
2021/10/13 07:03:09;;;;;;;16.30;8.70;;;5.70;99.90;;;;;;5121004;27;20199;-68
2021/10/13 07:05:38;;;;;;;18.17;9.60;;;5.70;99.90;;;;;;5113488;27;20574;-69
2021/10/13 07:08:05;;;;;;;17.87;9.90;;;5.80;99.90;;;;;;5120443;27;20209;-68
2021/10/13 07:10:33;;;;;;;19.67;9.87;;;5.90;99.90;;;;;;5114634;27;20833;-68
2021/10/13 07:12:59;;;;;;;18.70;10.07;;;6.00;99.90;;;;;;5118234;27;20220;-69
2021/10/13 07:15:26;;;;;;;16.37;8.87;;;6.00;99.90;;;;;;5117608;27;20200;-68
2021/10/13 07:17:53;;;;;;;16.73;9.47;;;5.90;99.90;;;;;;5111954;27;20212;-68
2021/10/13 07:20:22;;;;;;;17.07;10.10;;;6.00;99.90;;;;;;5115475;27;20213;-69
2021/10/13 07:22:50;;;;;;;18.13;9.37;;;6.10;99.90;;;;;;5115204;27;20717;-69
2021/10/13 07:25:22;;;;;;;19.27;10.33;;;6.20;99.90;;;;;;5116262;27;20484;-68
2021/10/13 07:27:48;;;;;;;17.70;10.17;;;6.20;99.90;;;;;;5110564;27;20613;-68
2021/10/13 07:30:18;;;;;;;16.63;9.60;;;6.40;99.90;;;;;;5110845;27;20216;-69
2021/10/13 07:32:45;;;;;;;19.70;10.30;;;6.50;99.90;;;;;;5118325;27;20247;-68
2021/10/13 07:35:13;;;;;;;17.57;9.23;;;6.80;99.90;;;;;;5111743;27;20212;-68
2021/10/13 07:37:40;;;;;;;18.23;10.27;;;7.20;99.90;;;;;;5111910;27;20197;-69
2021/10/13 07:40:09;;;;;;;18.03;10.13;;;7.40;99.90;;;;;;5112530;27;20201;-68
2021/10/13 07:42:37;;;;;;;18.47;9.67;;;7.60;99.90;;;;;;5109277;27;20220;-68
2021/10/13 07:45:04;;;;;;;16.50;9.27;;;7.70;99.90;;;;;;5113499;27;20205;-68
2021/10/13 07:47:31;;;;;;;17.03;9.60;;;7.90;99.90;;;;;;5121025;27;20662;-68
2021/10/13 07:49:58;;;;;;;16.53;9.53;;;7.90;99.90;;;;;;5109777;27;20208;-68
2021/10/13 07:52:25;;;;;;;14.97;8.40;;;7.90;99.90;;;;;;5111812;27;20221;-69
2021/10/13 07:54:52;;;;;;;14.13;8.33;;;8.00;99.90;;;;;;5114478;27;20211;-68
2021/10/13 07:57:20;;;;;;;16.07;8.70;;;8.00;99.90;;;;;;5116535;27;20207;-68
2021/10/13 07:59:47;;;;;;;24.10;12.77;;;8.00;99.90;;;;;;5109912;27;20204;-69
2021/10/13 08:02:13;;;;;;;14.70;8.93;;;8.00;99.90;;;;;;5112136;27;20216;-68
2021/10/13 08:04:40;;;;;;;12.77;7.40;;;8.10;99.90;;;;;;5109218;27;20212;-69
2021/10/13 08:07:08;;;;;;;16.23;7.87;;;8.00;99.90;;;;;;5124372;27;20200;-68
2021/10/13 08:09:35;;;;;;;15.67;8.33;;;8.10;99.90;;;;;;5117871;27;20226;-68
2021/10/13 08:12:02;;;;;;;16.20;8.30;;;8.30;99.90;;;;;;5121689;27;20224;-68
2021/10/13 08:14:30;;;;;;;14.63;7.57;;;8.30;99.90;;;;;;5111621;27;20669;-69
2021/10/13 08:16:58;;;;;;;16.00;8.13;;;8.40;99.90;;;;;;5112996;28;20569;-68
2021/10/13 08:19:25;;;;;;;14.23;8.20;;;8.40;99.90;;;;;;5122156;27;20210;-68
2021/10/13 08:21:52;;;;;;;12.03;7.47;;;8.50;99.90;;;;;;5115446;27;20204;-69
2021/10/13 08:24:19;;;;;;;12.07;7.23;;;8.50;99.90;;;;;;5117164;28;20283;-69
2021/10/13 08:26:46;;;;;;;15.90;7.43;;;8.60;99.90;;;;;;5115439;27;20571;-68
2021/10/13 08:29:13;;;;;;;10.70;6.33;;;8.60;99.90;;;;;;5118055;27;20212;-69
2021/10/13 08:31:41;;;;;;;11.03;7.07;;;8.60;99.90;;;;;;5123796;27;20624;-69
2021/10/13 08:34:08;;;;;;;10.87;7.00;;;8.80;99.90;;;;;;5114386;27;20216;-69
2021/10/13 08:36:34;;;;;;;10.60;6.77;;;8.90;99.90;;;;;;5126399;27;20219;-69
2021/10/13 08:39:01;;;;;;;15.43;7.20;;;8.80;99.90;;;;;;5117966;27;20204;-68
2021/10/13 08:41:28;;;;;;;13.53;7.33;;;8.90;99.90;;;;;;5125325;27;20205;-69
2021/10/13 08:43:55;;;;;;;10.00;6.70;;;9.10;99.90;;;;;;5118440;27;20553;-68
2021/10/13 08:46:22;;;;;;;16.17;6.70;;;9.10;99.90;;;;;;5117313;27;20216;-68
2021/10/13 08:48:50;;;;;;;8.60;5.47;;;9.10;99.90;;;;;;5115383;27;20201;-68
2021/10/13 08:51:17;;;;;;;10.83;6.00;;;9.30;99.90;;;;;;5120876;27;20201;-68
2021/10/13 08:53:44;;;;;;;12.20;6.13;;;9.40;99.90;;;;;;5117774;27;20216;-69
2021/10/13 08:56:11;;;;;;;9.57;6.00;;;9.50;99.90;;;;;;5117978;27;20212;-69
2021/10/13 08:58:40;;;;;;;11.20;6.80;;;9.50;99.90;;;;;;5114339;27;20241;-69
2021/10/13 09:01:13;;;;;;;12.87;6.90;;;9.60;99.90;;;;;;5129770;27;20212;-69
2021/10/13 09:03:42;;;;;;;9.30;6.30;;;9.60;99.90;;;;;;5120043;27;20566;-69
2021/10/13 09:06:33;;;;;;;8.53;5.40;;;9.70;99.90;;;;;;5123374;27;20201;-69
2021/10/13 09:09:03;;;;;;;11.87;5.97;;;10.00;99.90;;;;;;5121054;27;20205;-69
2021/10/13 09:11:39;;;;;;;8.97;5.77;;;10.00;99.90;;;;;;5128582;27;20211;-69
2021/10/13 09:14:11;;;;;;;9.60;5.83;;;10.20;99.90;;;;;;5123503;27;20219;-69
2021/10/13 09:16:59;;;;;;;9.03;5.50;;;10.20;99.90;;;;;;5114035;27;20212;-69
2021/10/13 09:19:28;;;;;;;9.20;5.73;;;10.10;99.90;;;;;;5120620;27;20197;-69
2021/10/13 09:21:59;;;;;;;8.73;6.03;;;10.20;99.90;;;;;;5130008;27;20205;-69
2021/10/13 09:24:28;;;;;;;9.73;6.17;;;10.10;99.90;;;;;;5119734;27;20201;-68
2021/10/13 09:26:56;;;;;;;10.20;6.20;;;10.30;99.90;;;;;;5120007;27;20200;-68
2021/10/13 09:29:24;;;;;;;8.90;5.40;;;10.30;99.90;;;;;;5116205;27;20582;-68
2021/10/13 09:32:02;;;;;;;7.93;4.93;;;10.30;99.90;;;;;;5121281;27;20215;-69
2021/10/13 09:34:29;;;;;;;11.40;5.37;;;10.40;99.90;;;;;;5130419;27;20204;-69
2021/10/13 09:37:01;;;;;;;7.57;4.90;;;10.40;99.90;;;;;;5114163;27;20685;-69
2021/10/13 09:39:30;;;;;;;5.30;3.90;;;10.50;99.90;;;;;;5124441;27;20681;-69
2021/10/13 09:42:06;;;;;;;8.20;4.43;;;10.40;99.90;;;;;;5119113;27;20567;-69
2021/10/13 09:44:36;;;;;;;5.07;4.13;;;10.50;99.90;;;;;;5131546;27;20669;-69
2021/10/13 09:47:06;;;;;;;8.67;4.40;;;10.70;99.90;;;;;;5126333;27;20201;-69
2021/10/13 09:49:36;;;;;;;8.27;4.03;;;10.70;99.90;;;;;;5121551;27;20660;-68
2021/10/13 09:52:24;;;;;;;7.90;4.27;;;10.50;99.90;;;;;;5121457;27;20208;-69
2021/10/13 09:54:58;;;;;;;5.47;4.10;;;10.80;99.90;;;;;;5119376;27;20193;-69
2021/10/13 09:57:28;;;;;;;7.80;4.40;;;11.30;99.90;;;;;;5119059;27;20588;-69
2021/10/13 10:00:05;;;;;;;8.17;4.83;;;11.60;99.90;;;;;;5119334;27;20493;-69
2021/10/13 10:02:34;;;;;;;7.23;4.03;;;12.10;99.90;;;;;;5119532;27;20709;-69
2021/10/13 10:05:04;;;;;;;6.77;4.17;;;11.80;99.90;;;;;;5125130;27;20785;-69
2021/10/13 10:07:32;;;;;;;6.40;4.10;;;11.90;99.90;;;;;;5114242;27;20228;-69
2021/10/13 10:10:19;;;;;;;6.27;4.37;;;12.10;99.90;;;;;;5130321;27;20231;-69
2021/10/13 10:13:07;;;;;;;6.63;4.10;;;12.10;99.90;;;;;;5121211;27;20891;-69
2021/10/13 10:15:36;;;;;;;14.47;4.20;;;12.20;99.90;;;;;;5113355;27;20913;-69
2021/10/13 10:18:19;;;;;;;7.60;3.90;;;12.30;99.90;;;;;;5130021;27;20201;-69
2021/10/13 10:20:46;;;;;;;7.43;4.10;;;12.40;99.90;;;;;;5125784;27;20662;-69
2021/10/13 10:23:32;;;;;;;4.13;3.40;;;12.60;99.90;;;;;;5123280;27;20208;-69
2021/10/13 10:26:01;;;;;;;5.73;3.03;;;12.80;99.90;;;;;;5118525;27;20211;-69
2021/10/13 10:28:58;;;;;;;9.90;3.93;;;12.90;99.90;;;;;;5121503;27;20220;-69
2021/10/13 10:31:36;;;;;;;4.90;3.47;;;12.80;99.90;;;;;;5117178;27;21451;-69
2021/10/13 10:34:13;;;;;;;9.87;3.80;;;12.70;99.90;;;;;;5123080;27;20352;-69
2021/10/13 10:37:12;;;;;;;8.97;3.80;;;12.80;99.90;;;;;;5119804;27;20207;-69
2021/10/13 10:40:04;;;;;;;6.37;3.87;;;13.20;99.90;;;;;;5121281;27;20215;-69
2021/10/13 10:42:57;;;;;;;9.20;3.70;;;13.30;99.90;;;;;;5123953;27;20216;-69
2021/10/13 10:45:27;;;;;;;8.77;3.40;;;13.40;99.90;;;;;;5115105;27;20300;-69
2021/10/13 10:47:57;;;;;;;7.17;3.20;;;13.30;99.90;;;;;;5121626;27;20207;-69
2021/10/13 10:50:43;;;;;;;6.80;3.07;;;13.30;99.90;;;;;;5123400;27;20294;-69
2021/10/13 10:53:22;;;;;;;5.17;2.90;;;13.50;99.90;;;;;;5118031;27;20220;-70
2021/10/13 10:55:54;;;;;;;3.13;2.33;;;13.70;99.90;;;;;;5125767;27;20225;-69
2021/10/13 10:58:24;;;;;;;4.63;2.77;;;13.80;99.90;;;;;;5113180;27;20217;-70
2021/10/13 11:01:04;;;;;;;2.93;2.53;;;14.00;99.90;;;;;;5117195;27;20216;-69
2021/10/13 11:03:36;;;;;;;3.90;2.17;;;14.20;99.90;;;;;;5110742;27;20207;-69
2021/10/13 11:06:20;;;;;;;7.07;2.80;;;13.90;99.90;;;;;;5110533;27;20213;-70
2021/10/13 11:08:55;;;;;;;6.17;2.30;;;14.00;99.90;;;;;;5125868;27;20637;-69
2021/10/13 11:11:24;;;;;;;4.77;2.40;;;13.80;99.90;;;;;;5116297;27;20207;-70
2021/10/13 11:14:16;;;;;;;6.20;2.60;;;13.80;99.90;;;;;;5122791;27;20220;-69
2021/10/13 11:16:53;;;;;;;7.40;2.83;;;13.70;99.90;;;;;;5110437;27;20210;-70
2021/10/13 11:19:23;;;;;;;4.87;2.67;;;14.00;99.90;;;;;;5123639;27;20291;-70
2021/10/13 11:22:03;;;;;;;4.70;2.53;;;14.10;99.90;;;;;;5117728;27;20214;-69
2021/10/13 11:24:30;;;;;;;6.00;2.90;;;14.30;99.90;;;;;;5118377;27;20724;-71
2021/10/13 11:26:59;;;;;;;2.93;2.30;;;14.10;99.90;;;;;;5107989;27;20212;-70
2021/10/13 11:29:28;;;;;;;5.23;2.37;;;14.00;99.90;;;;;;5115832;27;20211;-70
2021/10/13 11:32:08;;;;;;;6.40;2.30;;;13.80;99.90;;;;;;5112571;27;20199;-70
2021/10/13 11:34:35;;;;;;;5.60;2.40;;;14.00;99.90;;;;;;5122797;27;20215;-70
2021/10/13 11:37:03;;;;;;;5.73;2.40;;;13.70;99.90;;;;;;5123794;27;20203;-70
2021/10/13 11:39:34;;;;;;;5.30;2.27;;;13.50;99.90;;;;;;5117727;27;20228;-70
2021/10/13 11:42:04;;;;;;;5.33;2.07;;;13.40;99.90;;;;;;5121084;27;20628;-70
2021/10/13 11:44:31;;;;;;;5.23;2.67;;;13.30;99.90;;;;;;5121842;27;20205;-70
2021/10/13 11:47:03;;;;;;;2.37;2.00;;;13.20;99.90;;;;;;5122515;27;20227;-70
2021/10/13 11:49:30;;;;;;;5.23;2.50;;;12.90;99.90;;;;;;5122429;27;20200;-70
2021/10/13 11:52:21;;;;;;;5.03;2.40;;;12.80;99.90;;;;;;5118276;27;20200;-70
2021/10/13 11:54:48;;;;;;;4.90;2.13;;;13.00;99.90;;;;;;5100857;27;20212;-70
2021/10/13 11:57:17;;;;;;;7.47;2.33;;;13.20;99.90;;;;;;5119652;27;20208;-70
2021/10/13 11:59:44;;;;;;;5.50;2.77;;;13.70;99.90;;;;;;5119365;27;20721;-70
2021/10/13 12:02:19;;;;;;;7.50;2.50;;;13.90;99.90;;;;;;5118135;27;20223;-70
2021/10/13 12:04:54;;;;;;;6.17;2.53;;;13.90;99.90;;;;;;5115385;27;20486;-70
2021/10/13 12:07:24;;;;;;;5.53;2.90;;;13.50;99.90;;;;;;5120730;27;20294;-70
2021/10/13 12:09:58;;;;;;;4.87;2.20;;;13.30;99.90;;;;;;5123830;27;20678;-70
2021/10/13 12:12:27;;;;;;;6.83;2.87;;;13.50;99.90;;;;;;5117663;27;20219;-70
2021/10/13 12:14:54;;;;;;;4.57;2.20;;;13.40;99.90;;;;;;5121215;27;20704;-70
2021/10/13 12:17:29;;;;;;;7.33;2.63;;;13.00;99.90;;;;;;5120800;27;20213;-70
2021/10/13 12:19:57;;;;;;;5.60;2.30;;;12.90;99.90;;;;;;5119206;27;20269;-70
2021/10/13 12:22:25;;;;;;;4.90;2.63;;;12.90;99.90;;;;;;5118214;27;20214;-71
2021/10/13 12:24:52;;;;;;;6.63;2.50;;;12.90;99.90;;;;;;5117289;27;20193;-70
2021/10/13 12:27:32;;;;;;;8.27;2.37;;;12.90;99.90;;;;;;5117018;28;20250;-70
2021/10/13 12:29:59;;;;;;;5.97;2.33;;;12.80;99.90;;;;;;5115893;28;20207;-70
2021/10/13 12:32:28;;;;;;;6.40;2.73;;;12.70;99.90;;;;;;5118886;27;20243;-71
2021/10/13 12:34:55;;;;;;;7.97;3.10;;;12.60;99.90;;;;;;5117823;27;20229;-70
2021/10/13 12:37:26;;;;;;;4.73;2.87;;;12.60;99.90;;;;;;5121489;27;20420;-70
2021/10/13 12:39:53;;;;;;;7.17;3.50;;;12.60;99.90;;;;;;5114525;27;20558;-69
2021/10/13 12:42:25;;;;;;;10.23;3.87;;;12.50;99.90;;;;;;5112400;27;20200;-69
2021/10/13 12:45:00;;;;;;;4.87;2.83;;;12.60;99.90;;;;;;5119211;27;20787;-76
2021/10/13 12:47:27;;;;;;;6.37;2.60;;;12.60;99.90;;;;;;5109351;27;21994;-76
2021/10/13 12:49:57;;;;;;;6.93;2.90;;;12.60;99.90;;;;;;5117765;27;20203;-76
2021/10/13 12:52:27;;;;;;;8.57;3.00;;;12.50;99.90;;;;;;5126914;27;20210;-76
2021/10/13 12:54:56;;;;;;;3.93;2.10;;;12.70;99.90;;;;;;5118038;27;20376;-76
2021/10/13 12:57:28;;;;;;;3.60;2.17;;;12.80;99.90;;;;;;5121254;27;20224;-75
2021/10/13 12:59:58;;;;;;;6.53;3.10;;;13.10;99.90;;;;;;5113206;27;20207;-74
2021/10/13 13:02:25;;;;;;;3.63;2.00;;;13.10;99.90;;;;;;5116366;27;20677;-74